createdAt,value
2023-02-11T00:01:35.884Z,17.17
2023-02-11T00:04:04.917Z,18.03
2023-02-11T00:06:36.136Z,17.97
2023-02-11T00:09:07.297Z,19.60
2023-02-11T00:11:35.803Z,21.13
2023-02-11T00:14:07.840Z,18.83
2023-02-11T00:16:36.120Z,20.53
2023-02-11T00:19:07.751Z,18.33
2023-02-11T00:21:37.299Z,19.30
2023-02-11T00:24:05.819Z,18.60
2023-02-11T00:26:35.958Z,18.53
2023-02-11T00:29:05.709Z,19.63
2023-02-11T00:31:35.166Z,20.33
2023-02-11T00:34:03.618Z,15.10
2023-02-11T00:36:32.134Z,18.73
2023-02-11T00:39:01.828Z,18.47
2023-02-11T00:41:30.600Z,21.07
2023-02-11T00:43:58.587Z,22.17
2023-02-11T00:46:26.970Z,20.07
2023-02-11T00:48:57.652Z,18.43
2023-02-11T00:51:26.126Z,20.57
2023-02-11T00:53:54.226Z,20.00
2023-02-11T00:56:23.584Z,17.23
2023-02-11T00:58:52.208Z,15.60
2023-02-11T01:01:20.504Z,15.93
2023-02-11T01:03:48.609Z,18.37
2023-02-11T01:06:17.163Z,17.97
2023-02-11T01:08:45.296Z,20.50
2023-02-11T01:11:16.988Z,23.63
2023-02-11T01:13:47.138Z,20.03
2023-02-11T01:16:15.264Z,20.43
2023-02-11T01:18:44.380Z,21.50
2023-02-11T01:21:13.276Z,17.87
2023-02-11T01:23:41.281Z,19.10
2023-02-11T01:26:09.379Z,20.93
2023-02-11T01:28:37.467Z,16.53
2023-02-11T01:31:07.110Z,21.00
2023-02-11T01:33:35.245Z,22.47
2023-02-11T01:36:04.142Z,21.63
2023-02-11T01:38:32.925Z,16.43
2023-02-11T01:41:02.847Z,16.33
2023-02-11T01:43:35.588Z,20.57
2023-02-11T01:46:21.229Z,16.43
2023-02-11T01:48:52.652Z,20.93
2023-02-11T01:51:25.389Z,17.57
2023-02-11T01:54:12.482Z,18.33
2023-02-11T01:57:03.410Z,17.93
2023-02-11T01:59:53.613Z,18.73
2023-02-11T02:02:28.168Z,16.93
2023-02-11T02:05:01.451Z,17.53
2023-02-11T02:07:34.692Z,17.77
2023-02-11T02:10:07.135Z,18.10
2023-02-11T02:12:35.231Z,18.23
2023-02-11T02:15:26.039Z,17.77
2023-02-11T02:18:09.962Z,17.00
2023-02-11T02:21:07.676Z,17.60
2023-02-11T02:23:54.607Z,15.70
2023-02-11T02:27:10.601Z,13.37
2023-02-11T02:30:07.929Z,19.07
2023-02-11T02:32:48.182Z,14.07
2023-02-11T02:35:29.480Z,21.50
2023-02-11T02:38:02.522Z,17.00
2023-02-11T02:40:36.449Z,18.33
2023-02-11T02:43:05.888Z,22.33
2023-02-11T02:45:34.476Z,18.37
2023-02-11T02:48:03.903Z,19.93
2023-02-11T02:50:34.857Z,17.30
2023-02-11T02:53:19.190Z,17.10
2023-02-11T02:55:58.205Z,27.87
2023-02-11T02:58:48.045Z,17.43
2023-02-11T03:01:27.704Z,16.97
2023-02-11T03:04:04.634Z,16.30
2023-02-11T03:06:37.566Z,21.73
2023-02-11T03:09:11.533Z,21.83
2023-02-11T03:11:47.602Z,22.47
2023-02-11T03:14:18.140Z,17.67
2023-02-11T03:16:48.645Z,17.63
2023-02-11T03:19:21.479Z,20.77
2023-02-11T03:21:52.771Z,15.47
2023-02-11T03:24:26.584Z,18.47
2023-02-11T03:26:57.546Z,16.37
2023-02-11T03:29:33.689Z,17.70
2023-02-11T03:32:18.025Z,20.10
2023-02-11T03:34:52.390Z,20.70
2023-02-11T03:37:26.257Z,20.37
2023-02-11T03:39:58.450Z,24.33
2023-02-11T03:42:30.665Z,19.20
2023-02-11T03:45:04.942Z,22.33
2023-02-11T03:47:36.550Z,20.67
2023-02-11T03:50:11.241Z,21.17
2023-02-11T03:52:39.781Z,16.67
2023-02-11T03:55:12.723Z,17.63
2023-02-11T03:57:40.932Z,20.57
2023-02-11T04:00:10.568Z,19.07
2023-02-11T04:02:41.177Z,18.67
2023-02-11T04:05:12.445Z,20.70
2023-02-11T04:07:40.864Z,18.37
2023-02-11T04:10:09.884Z,21.43
2023-02-11T04:12:39.934Z,18.47
2023-02-11T04:15:09.044Z,20.40
2023-02-11T04:17:37.164Z,22.90
2023-02-11T04:20:05.615Z,18.23
2023-02-11T04:22:36.577Z,16.47
2023-02-11T04:25:07.158Z,22.57
2023-02-11T04:27:35.203Z,17.77
2023-02-11T04:30:08.863Z,20.67
2023-02-11T04:32:37.099Z,19.37
2023-02-11T04:35:05.338Z,25.13
2023-02-11T04:37:35.211Z,26.20
2023-02-11T04:40:03.275Z,21.20
2023-02-11T04:42:31.531Z,20.40
2023-02-11T04:44:59.754Z,20.87
2023-02-11T04:47:27.779Z,17.87
2023-02-11T04:49:55.753Z,22.27
2023-02-11T04:52:23.753Z,26.67
2023-02-11T04:54:53.127Z,16.80
2023-02-11T04:57:21.286Z,17.57
2023-02-11T04:59:49.301Z,22.37
2023-02-11T05:02:17.448Z,24.87
2023-02-11T05:04:45.433Z,20.80
2023-02-11T05:07:13.581Z,20.77
2023-02-11T05:09:41.726Z,37.73
2023-02-11T05:12:11.037Z,29.63
2023-02-11T05:14:39.056Z,18.03
2023-02-11T05:17:07.091Z,18.50
2023-02-11T05:19:35.382Z,22.10
2023-02-11T05:22:03.888Z,20.37
2023-02-11T05:24:32.594Z,23.97
2023-02-11T05:27:00.712Z,16.50
2023-02-11T05:29:30.279Z,23.20
2023-02-11T05:31:59.813Z,21.67
2023-02-11T05:34:27.848Z,23.53
2023-02-11T05:36:57.937Z,20.47
2023-02-11T05:39:26.005Z,20.87
2023-02-11T05:41:54.924Z,21.67
2023-02-11T05:44:22.948Z,19.00
2023-02-11T05:46:52.339Z,19.20
2023-02-11T05:49:20.326Z,16.10
2023-02-11T05:51:48.466Z,15.50
2023-02-11T05:54:16.752Z,17.00
2023-02-11T05:56:45.074Z,19.70
2023-02-11T05:59:14.748Z,16.30
2023-02-11T06:01:43.203Z,17.00
2023-02-11T06:04:12.582Z,25.60
2023-02-11T06:06:40.558Z,19.40
2023-02-11T06:09:08.814Z,23.67
2023-02-11T06:11:36.814Z,24.33
2023-02-11T06:14:05.121Z,22.90
2023-02-11T06:16:33.137Z,20.60
2023-02-11T06:19:01.094Z,17.00
2023-02-11T06:21:42.744Z,18.70
2023-02-11T06:24:11.830Z,16.77
2023-02-11T06:26:39.840Z,18.47
2023-02-11T06:29:07.834Z,20.17
2023-02-11T06:31:36.312Z,20.40
2023-02-11T06:34:05.024Z,20.37
2023-02-11T06:36:34.363Z,17.17
2023-02-11T06:39:04.040Z,17.30
2023-02-11T06:41:32.323Z,15.83
2023-02-11T06:44:00.461Z,17.17
2023-02-11T06:46:28.519Z,24.27
2023-02-11T06:48:56.558Z,21.73
2023-02-11T06:51:24.832Z,19.17
2023-02-11T06:53:54.567Z,19.10
2023-02-11T06:56:24.649Z,16.13
2023-02-11T06:58:55.580Z,20.60
2023-02-11T07:01:25.280Z,17.80
2023-02-11T07:03:53.672Z,20.03
2023-02-11T07:06:24.739Z,19.00
2023-02-11T07:08:54.419Z,18.17
2023-02-11T07:11:25.294Z,17.37
2023-02-11T07:13:54.588Z,20.70
2023-02-11T07:16:23.395Z,26.23
2023-02-11T07:18:51.817Z,19.87
2023-02-11T07:21:21.610Z,22.90
2023-02-11T07:23:50.068Z,20.53
2023-02-11T07:26:22.974Z,26.43
2023-02-11T07:28:51.819Z,20.47
2023-02-11T07:31:26.747Z,19.77
2023-02-11T07:33:56.664Z,19.73
2023-02-11T07:36:25.253Z,23.87
2023-02-11T07:38:53.503Z,24.90
2023-02-11T07:41:26.404Z,22.73
2023-02-11T07:43:54.512Z,23.77
2023-02-11T07:46:24.361Z,22.20
2023-02-11T07:48:52.653Z,23.80
2023-02-11T07:51:23.592Z,23.63
2023-02-11T07:54:01.879Z,25.37
2023-02-11T07:56:32.032Z,19.50
2023-02-11T07:59:03.301Z,20.67
2023-02-11T08:01:32.197Z,21.47
2023-02-11T08:04:02.636Z,27.50
2023-02-11T08:06:32.659Z,24.57
2023-02-11T08:09:05.628Z,22.40
2023-02-11T08:11:42.254Z,26.43
2023-02-11T08:14:10.569Z,26.13
2023-02-11T08:16:39.930Z,27.47
2023-02-11T08:19:11.633Z,23.30
2023-02-11T08:21:39.757Z,25.10
2023-02-11T08:24:08.557Z,24.00
2023-02-11T08:26:37.861Z,28.10
2023-02-11T08:29:17.191Z,26.10
2023-02-11T08:31:48.227Z,23.80
2023-02-11T08:34:18.990Z,27.27
2023-02-11T08:36:48.337Z,27.40
2023-02-11T08:39:28.648Z,32.17
2023-02-11T08:41:57.928Z,26.60
2023-02-11T08:44:27.471Z,39.97
2023-02-11T08:46:55.566Z,30.27
2023-02-11T08:49:24.357Z,27.97
2023-02-11T08:51:52.478Z,31.70
2023-02-11T08:54:20.507Z,28.87
2023-02-11T08:56:52.899Z,27.73
2023-02-11T08:59:20.914Z,29.07
2023-02-11T09:01:51.406Z,24.20
2023-02-11T09:04:20.193Z,24.60
2023-02-11T09:06:48.254Z,25.80
2023-02-11T09:09:17.675Z,25.07
2023-02-11T09:11:46.337Z,26.93
2023-02-11T09:14:19.364Z,26.03
2023-02-11T09:16:47.674Z,27.33
2023-02-11T09:19:17.899Z,22.13
2023-02-11T09:21:45.865Z,25.93
2023-02-11T09:24:13.959Z,26.37
2023-02-11T09:26:43.606Z,23.47
2023-02-11T09:29:11.574Z,23.70
2023-02-11T09:31:39.984Z,25.27
2023-02-11T09:34:08.767Z,21.80
2023-02-11T09:36:40.289Z,24.90
2023-02-11T09:39:10.825Z,27.67
2023-02-11T09:42:05.255Z,25.20
2023-02-11T09:44:35.659Z,23.57
2023-02-11T09:47:06.795Z,26.23
2023-02-11T09:49:41.117Z,27.90
2023-02-11T09:52:20.179Z,21.50
2023-02-11T09:54:55.654Z,26.23
2023-02-11T09:57:29.092Z,19.63
2023-02-11T09:59:58.010Z,25.43
2023-02-11T10:02:30.478Z,25.30
2023-02-11T10:05:20.114Z,23.23
2023-02-11T10:07:56.060Z,24.10
2023-02-11T10:10:45.441Z,27.23
2023-02-11T10:13:31.074Z,24.03
2023-02-11T10:16:07.032Z,32.10
2023-02-11T10:18:57.675Z,27.00
2023-02-11T10:21:33.753Z,23.63
2023-02-11T10:24:05.839Z,26.20
2023-02-11T10:26:36.638Z,29.33
2023-02-11T10:29:17.902Z,28.30
2023-02-11T10:31:47.724Z,22.90
2023-02-11T10:34:16.383Z,25.60
2023-02-11T10:36:45.860Z,26.13
2023-02-11T10:39:24.930Z,25.57
2023-02-11T10:41:56.390Z,26.23
2023-02-11T10:44:29.900Z,25.57
2023-02-11T10:46:59.554Z,26.67
2023-02-11T10:49:39.669Z,26.03
2023-02-11T10:52:25.196Z,31.03
2023-02-11T10:55:04.006Z,25.63
2023-02-11T10:57:36.253Z,27.80
2023-02-11T11:00:23.898Z,24.43
2023-02-11T11:03:06.362Z,27.50
2023-02-11T11:05:42.100Z,30.27
2023-02-11T11:08:18.846Z,23.87
2023-02-11T11:11:05.191Z,30.80
2023-02-11T11:13:35.146Z,28.97
2023-02-11T11:16:25.044Z,31.13
2023-02-11T11:18:54.593Z,26.93
2023-02-11T11:21:27.395Z,25.90
2023-02-11T11:23:58.178Z,24.87
2023-02-11T11:26:29.366Z,28.43
2023-02-11T11:29:03.564Z,29.90
2023-02-11T11:31:34.960Z,30.00
2023-02-11T11:34:16.978Z,30.83
2023-02-11T11:36:45.731Z,27.33
2023-02-11T11:39:22.581Z,29.73
2023-02-11T11:41:59.950Z,25.47
2023-02-11T11:44:31.579Z,27.87
2023-02-11T11:47:27.220Z,27.13
2023-02-11T11:50:27.078Z,32.50
2023-02-11T11:53:01.579Z,26.97
2023-02-11T11:55:35.867Z,25.65
2023-02-11T11:58:06.881Z,30.80
2023-02-11T12:00:43.835Z,29.17
2023-02-11T12:03:42.289Z,31.88
2023-02-11T12:06:26.652Z,26.33
2023-02-11T12:09:07.959Z,29.20
2023-02-11T12:11:48.790Z,27.88
2023-02-11T12:14:29.353Z,28.75
2023-02-11T12:17:04.092Z,30.95
2023-02-11T12:19:54.935Z,31.10
2023-02-11T12:22:35.211Z,29.27
2023-02-11T12:25:26.127Z,28.08
2023-02-11T12:28:03.459Z,29.73
2023-02-11T12:31:07.753Z,23.83
2023-02-11T12:34:09.592Z,27.75
2023-02-11T12:36:55.345Z,27.63
2023-02-11T12:39:34.201Z,29.38
2023-02-11T12:42:47.330Z,27.98
2023-02-11T12:45:24.058Z,27.65
2023-02-11T12:48:06.543Z,30.73
2023-02-11T12:50:43.077Z,26.83
2023-02-11T12:53:31.101Z,28.20
2023-02-11T12:56:06.178Z,29.70
2023-02-11T12:58:44.967Z,26.85
2023-02-11T13:01:19.807Z,32.25
2023-02-11T13:03:54.548Z,29.45
2023-02-11T13:06:30.642Z,27.02
2023-02-11T13:09:03.345Z,27.20
2023-02-11T13:11:35.965Z,25.75
2023-02-11T13:14:07.897Z,27.98
2023-02-11T13:16:41.675Z,26.35
2023-02-11T13:19:19.451Z,26.38
2023-02-11T13:21:58.730Z,26.48
2023-02-11T13:24:35.219Z,26.40
2023-02-11T13:27:11.221Z,32.45
2023-02-11T13:30:11.290Z,28.13
2023-02-11T13:33:04.266Z,28.10
2023-02-11T13:35:35.587Z,27.45
2023-02-11T13:38:05.769Z,24.77
2023-02-11T13:40:36.150Z,27.65
2023-02-11T13:43:06.160Z,27.65
2023-02-11T13:45:38.267Z,27.80
2023-02-11T13:48:10.056Z,26.50
2023-02-11T13:50:46.615Z,28.38
2023-02-11T13:53:16.132Z,26.48
2023-02-11T13:55:47.063Z,29.30
2023-02-11T13:58:34.164Z,25.42
2023-02-11T14:01:02.205Z,24.02
2023-02-11T14:03:51.235Z,22.92
2023-02-11T14:06:44.068Z,23.33
2023-02-11T14:09:42.216Z,24.45
2023-02-11T14:12:26.225Z,24.20
2023-02-11T14:15:16.793Z,24.65
2023-02-11T14:17:44.809Z,23.17
2023-02-11T14:20:35.431Z,23.80
2023-02-11T14:23:05.750Z,25.50
2023-02-11T14:25:34.065Z,28.95
2023-02-11T14:28:09.151Z,25.33
2023-02-11T14:30:46.098Z,22.92
2023-02-11T14:33:53.538Z,27.55
2023-02-11T14:36:43.745Z,26.27
2023-02-11T14:39:25.186Z,26.98
2023-02-11T14:41:53.930Z,25.83
2023-02-11T14:44:24.303Z,24.25
2023-02-11T14:46:53.732Z,27.38
2023-02-11T14:49:27.331Z,29.17
2023-02-11T14:51:57.611Z,26.48
2023-02-11T14:54:31.857Z,28.25
2023-02-11T14:57:15.634Z,27.33
2023-02-11T14:59:58.923Z,25.88
2023-02-11T15:02:31.542Z,26.42
2023-02-11T15:05:16.016Z,25.60
2023-02-11T15:07:46.308Z,28.33
2023-02-11T15:10:23.057Z,25.83
2023-02-11T15:12:51.237Z,26.98
2023-02-11T15:15:19.292Z,33.55
2023-02-11T15:17:51.607Z,30.50
2023-02-11T15:20:25.503Z,28.63
2023-02-11T15:22:58.523Z,27.55
2023-02-11T15:25:28.879Z,29.42
2023-02-11T15:27:58.704Z,25.73
2023-02-11T15:30:29.974Z,27.55
2023-02-11T15:33:00.190Z,28.55
2023-02-11T15:35:30.876Z,28.00
2023-02-11T15:38:00.035Z,31.60
2023-02-11T15:40:32.331Z,33.65
2023-02-11T15:43:02.798Z,29.92
2023-02-11T15:45:41.291Z,30.90
2023-02-11T15:48:16.212Z,28.05
2023-02-11T15:50:51.831Z,28.13
2023-02-11T15:53:26.509Z,30.90
2023-02-11T15:56:05.434Z,28.30
2023-02-11T15:58:37.925Z,31.20
2023-02-11T16:01:06.705Z,31.13
2023-02-11T16:03:34.890Z,29.70
2023-02-11T16:06:35.782Z,52.80
2023-02-11T16:09:06.023Z,35.05
2023-02-11T16:11:38.325Z,30.35
2023-02-11T16:14:22.915Z,29.75
2023-02-11T16:16:53.857Z,26.37
2023-02-11T16:19:25.687Z,28.35
2023-02-11T16:21:56.175Z,33.30
2023-02-11T16:24:29.081Z,32.70
2023-02-11T16:27:01.434Z,28.80
2023-02-11T16:29:31.237Z,29.87
2023-02-11T16:32:08.786Z,27.10
2023-02-11T16:34:37.825Z,30.80
2023-02-11T16:37:06.780Z,24.17
2023-02-11T16:39:35.165Z,26.67
2023-02-11T16:42:07.605Z,26.97
2023-02-11T16:44:36.317Z,28.67
2023-02-11T16:47:05.933Z,28.80
2023-02-11T16:49:37.021Z,34.73
2023-02-11T16:52:09.682Z,29.97
2023-02-11T16:54:37.642Z,30.20
2023-02-11T16:57:12.464Z,28.17
2023-02-11T16:59:40.877Z,33.17
2023-02-11T17:02:14.668Z,28.97
2023-02-11T17:04:42.861Z,28.60
2023-02-11T17:07:10.970Z,32.70
2023-02-11T17:09:38.974Z,31.43
2023-02-11T17:12:10.725Z,30.27
2023-02-11T17:14:39.545Z,33.57
2023-02-11T17:17:08.006Z,32.00
2023-02-11T17:19:35.983Z,29.00
2023-02-11T17:22:05.102Z,25.60
2023-02-11T17:24:33.827Z,28.87
2023-02-11T17:27:01.865Z,27.07
2023-02-11T17:29:31.212Z,28.50
2023-02-11T17:31:59.290Z,28.17
2023-02-11T17:34:29.128Z,30.30
2023-02-11T17:36:57.955Z,28.03
2023-02-11T17:39:26.204Z,28.20
2023-02-11T17:41:54.189Z,27.10
2023-02-11T17:44:22.237Z,29.10
2023-02-11T17:46:51.674Z,31.03
2023-02-11T17:49:20.328Z,27.80
2023-02-11T17:51:48.594Z,25.17
2023-02-11T17:54:19.738Z,30.83
2023-02-11T17:56:50.766Z,26.63
2023-02-11T17:59:19.169Z,25.97
2023-02-11T18:01:47.311Z,27.10
2023-02-11T18:04:19.701Z,26.70
2023-02-11T18:06:48.220Z,26.37
2023-02-11T18:09:16.357Z,26.57
2023-02-11T18:11:44.468Z,26.90
2023-02-11T18:14:12.966Z,26.30
2023-02-11T18:16:43.660Z,27.83
2023-02-11T18:19:12.156Z,23.57
2023-02-11T18:21:41.852Z,22.70
2023-02-11T18:24:09.952Z,30.17
2023-02-11T18:26:38.173Z,27.23
2023-02-11T18:29:07.039Z,27.83
2023-02-11T18:31:36.322Z,28.10
2023-02-11T18:34:07.544Z,26.57
2023-02-11T18:36:36.229Z,25.43
2023-02-11T18:39:06.090Z,24.83
2023-02-11T18:41:34.325Z,23.87
2023-02-11T18:44:03.309Z,23.63
2023-02-11T18:46:31.855Z,23.20
2023-02-11T18:49:00.121Z,25.00
2023-02-11T18:51:28.466Z,25.37
2023-02-11T18:53:56.425Z,29.93
2023-02-11T18:56:27.691Z,26.77
2023-02-11T18:58:56.530Z,23.63
2023-02-11T19:01:27.423Z,28.80
2023-02-11T19:03:57.197Z,27.67
2023-02-11T19:06:27.868Z,29.20
2023-02-11T19:09:04.985Z,26.57
2023-02-11T19:11:54.136Z,24.57
2023-02-11T19:14:24.101Z,24.43
2023-02-11T19:16:54.438Z,27.80
2023-02-11T19:19:24.352Z,24.80
2023-02-11T19:21:52.323Z,25.33
2023-02-11T19:24:20.774Z,25.73
2023-02-11T19:26:51.391Z,23.93
2023-02-11T19:29:19.686Z,26.23
2023-02-11T19:31:47.969Z,29.87
2023-02-11T19:34:19.840Z,23.43
2023-02-11T19:36:48.880Z,28.33
2023-02-11T19:39:17.015Z,25.43
2023-02-11T19:41:45.062Z,28.00
2023-02-11T19:44:15.138Z,26.23
2023-02-11T19:46:43.791Z,26.90
2023-02-11T19:49:15.393Z,26.17
2023-02-11T19:51:43.356Z,29.40
2023-02-11T19:54:11.352Z,28.90
2023-02-11T19:56:39.381Z,27.43
2023-02-11T19:59:08.922Z,28.13
2023-02-11T20:01:38.978Z,24.47
2023-02-11T20:04:07.659Z,26.20
2023-02-11T20:06:36.519Z,25.47
2023-02-11T20:09:07.447Z,27.30
2023-02-11T20:11:36.864Z,29.87
2023-02-11T20:14:06.719Z,27.77
2023-02-11T20:16:47.697Z,29.57
2023-02-11T20:19:21.608Z,30.03
2023-02-11T20:21:52.953Z,29.07
2023-02-11T20:24:21.147Z,31.27
2023-02-11T20:26:51.643Z,28.10
2023-02-11T20:29:20.841Z,27.07
2023-02-11T20:31:50.546Z,24.80
2023-02-11T20:34:21.979Z,29.03
2023-02-11T20:36:52.733Z,22.43
2023-02-11T20:39:22.467Z,25.60
2023-02-11T20:41:51.654Z,28.73
2023-02-11T20:44:21.870Z,23.17
2023-02-11T20:46:51.077Z,27.83
2023-02-11T20:49:22.235Z,26.20
2023-02-11T20:51:51.216Z,30.13
2023-02-11T20:54:20.945Z,24.80
2023-02-11T20:56:51.016Z,29.90
2023-02-11T20:59:20.949Z,27.53
2023-02-11T21:01:53.380Z,33.30
2023-02-11T21:04:24.989Z,24.37
2023-02-11T21:06:55.348Z,22.43
2023-02-11T21:09:31.030Z,27.53
2023-02-11T21:11:59.268Z,30.30
2023-02-11T21:14:30.166Z,30.77
2023-02-11T21:16:58.551Z,27.00
2023-02-11T21:19:27.920Z,26.27
2023-02-11T21:21:57.328Z,23.80
2023-02-11T21:24:25.402Z,27.60
2023-02-11T21:26:53.499Z,28.13
2023-02-11T21:29:21.525Z,29.43
2023-02-11T21:31:49.779Z,26.37
2023-02-11T21:34:17.891Z,23.80
2023-02-11T21:36:47.246Z,28.67
2023-02-11T21:39:15.267Z,24.33
2023-02-11T21:41:43.261Z,28.30
2023-02-11T21:44:11.284Z,26.20
2023-02-11T21:46:39.644Z,27.83
2023-02-11T21:49:07.668Z,33.80
2023-02-11T21:51:35.664Z,29.87
2023-02-11T21:54:05.423Z,26.57
2023-02-11T21:56:35.036Z,26.37
2023-02-11T21:59:03.513Z,23.30
2023-02-11T22:01:37.051Z,26.30
2023-02-11T22:04:05.253Z,27.93
2023-02-11T22:06:35.355Z,30.40
2023-02-11T22:09:06.226Z,33.60
2023-02-11T22:11:34.222Z,26.87
2023-02-11T22:14:02.319Z,30.60
2023-02-11T22:16:31.521Z,30.27
2023-02-11T22:19:02.224Z,30.23
2023-02-11T22:21:30.305Z,27.60
2023-02-11T22:23:58.384Z,28.27
2023-02-11T22:26:29.057Z,32.57
2023-02-11T22:28:57.875Z,27.07
2023-02-11T22:31:28.575Z,31.33
2023-02-11T22:33:57.372Z,20.63
2023-02-11T22:36:27.305Z,26.27
2023-02-11T22:38:55.929Z,32.20
2023-02-11T22:41:24.406Z,29.47
2023-02-11T22:43:53.775Z,28.47
2023-02-11T22:46:21.999Z,22.77
2023-02-11T22:48:51.207Z,30.57
2023-02-11T22:51:21.161Z,25.33
2023-02-11T22:53:53.284Z,30.57
2023-02-11T22:56:22.005Z,26.07
2023-02-11T22:58:50.714Z,29.17
2023-02-11T23:01:42.261Z,32.93
2023-02-11T23:04:13.132Z,29.33
2023-02-11T23:06:41.164Z,27.50
2023-02-11T23:09:12.193Z,25.60
2023-02-11T23:11:40.708Z,28.23
2023-02-11T23:14:11.938Z,29.73
2023-02-11T23:16:40.005Z,25.60
2023-02-11T23:19:10.248Z,28.03
2023-02-11T23:21:39.907Z,24.63
2023-02-11T23:24:14.259Z,31.33
2023-02-11T23:26:43.162Z,27.77
2023-02-11T23:29:11.965Z,23.60
2023-02-11T23:31:43.338Z,25.80
2023-02-11T23:34:15.001Z,30.10
2023-02-11T23:36:42.949Z,24.83
2023-02-11T23:39:14.745Z,29.10
2023-02-11T23:41:42.752Z,27.53
2023-02-11T23:44:11.698Z,27.60
2023-02-11T23:46:39.908Z,29.87
2023-02-11T23:49:07.885Z,32.33
2023-02-11T23:51:37.304Z,30.87
2023-02-11T23:54:05.461Z,36.20
2023-02-11T23:56:33.569Z,36.43
2023-02-11T23:59:01.522Z,34.87
